Time;durP1;ratioP1;P1;durP2;ratioP2;P2;SDS_P1;SDS_P2;PMS_P1;PMS_P2;Temp;Humidity;BMP_temperature;BMP_pressure;BME280_temperature;BME280_humidity;BME280_pressure;Samples;Min_cycle;Max_cycle;Signal;HPM_P1;HPM_P2
2023/02/24 00:01:17;;;;;;;4.53;1.30;;;5.20;99.90;;;;;;5050706;28;20202;-87
2023/02/24 00:03:44;;;;;;;7.07;1.43;;;5.30;99.90;;;;;;5046160;28;20692;-88
2023/02/24 00:06:11;;;;;;;6.23;2.33;;;5.40;99.90;;;;;;5045134;28;20275;-87
2023/02/24 00:08:39;;;;;;;5.23;1.47;;;5.50;99.90;;;;;;5048999;28;20280;-85
2023/02/24 00:11:12;;;;;;;8.50;2.30;;;5.50;99.90;;;;;;5051158;28;20206;-88
2023/02/24 00:13:40;;;;;;;7.20;1.30;;;5.50;99.90;;;;;;5051019;28;20194;-82
2023/02/24 00:16:07;;;;;;;3.97;1.20;;;5.50;99.20;;;;;;5050811;28;20260;-83
2023/02/24 00:18:36;;;;;;;5.77;1.37;;;5.50;69.80;;;;;;5051426;28;20214;-87
2023/02/24 00:21:07;;;;;;;5.27;1.10;;;5.50;69.20;;;;;;5052042;28;20500;-90
2023/02/24 00:23:36;;;;;;;5.47;1.53;;;5.50;96.10;;;;;;5067577;28;20217;-92
2023/02/24 00:26:03;;;;;;;7.87;1.70;;;5.50;99.90;;;;;;5071751;28;20251;-91
2023/02/24 00:28:31;;;;;;;3.70;1.37;;;5.50;99.90;;;;;;5064631;28;20217;-90
2023/02/24 00:31:04;;;;;;;6.03;1.10;;;5.40;99.90;;;;;;5052040;28;20569;-90
2023/02/24 00:33:32;;;;;;;4.30;1.13;;;5.40;99.90;;;;;;5051258;28;20314;-89
2023/02/24 00:36:09;;;;;;;6.30;1.30;;;5.40;99.90;;;;;;5051248;28;20241;-85
2023/02/24 00:38:37;;;;;;;4.53;1.90;;;5.50;99.90;;;;;;5051740;28;20213;-91
2023/02/24 00:41:13;;;;;;;5.73;1.40;;;5.40;99.90;;;;;;5048361;28;20218;-90
2023/02/24 00:43:45;;;;;;;6.77;1.53;;;5.40;99.90;;;;;;5049590;28;20198;-86
2023/02/24 00:46:13;;;;;;;3.27;1.53;;;5.40;99.90;;;;;;5049274;28;20202;-85
2023/02/24 00:48:40;;;;;;;4.90;1.33;;;5.50;99.90;;;;;;5061203;28;20835;-87
2023/02/24 00:51:10;;;;;;;4.33;1.37;;;5.50;99.90;;;;;;5069247;28;20247;-86
2023/02/24 00:53:38;;;;;;;4.07;1.43;;;5.50;99.90;;;;;;5069847;28;20245;-83
2023/02/24 00:56:07;;;;;;;7.50;1.40;;;5.60;99.90;;;;;;5070155;28;20189;-89
2023/02/24 00:58:35;;;;;;;4.30;1.30;;;5.70;99.90;;;;;;5068641;28;20231;-86
2023/02/24 01:01:03;;;;;;;4.17;1.53;;;5.80;99.90;;;;;;5054265;28;20233;-83
2023/02/24 01:03:31;;;;;;;6.87;1.37;;;5.80;99.90;;;;;;5048808;28;20202;-82
2023/02/24 01:06:03;;;;;;;6.10;1.30;;;5.90;99.90;;;;;;5049422;28;20225;-88
2023/02/24 01:08:35;;;;;;;3.67;1.20;;;5.90;99.90;;;;;;5051469;28;20735;-85
2023/02/24 01:13:48;;;;;;;7.93;1.53;;;6.00;99.90;;;;;;5069458;28;20196;-91
2023/02/24 01:16:17;;;;;;;3.70;1.03;;;6.10;99.90;;;;;;5069087;28;20205;-82
2023/02/24 01:18:44;;;;;;;6.43;2.27;;;6.10;99.90;;;;;;5069780;28;20290;-89
2023/02/24 01:21:13;;;;;;;5.53;1.33;;;6.10;99.90;;;;;;5069130;28;20238;-89
2023/02/24 01:23:41;;;;;;;14.10;2.53;;;6.10;98.90;;;;;;5068696;28;20201;-89
2023/02/24 01:26:09;;;;;;;7.37;1.60;;;6.00;99.90;;;;;;5051560;28;20309;-90
2023/02/24 01:28:37;;;;;;;3.80;1.17;;;6.00;99.90;;;;;;5050714;28;20320;-86
2023/02/24 01:31:05;;;;;;;6.33;1.40;;;6.00;99.90;;;;;;5048236;28;20672;-87
2023/02/24 01:33:36;;;;;;;3.63;1.40;;;6.00;99.90;;;;;;5062182;28;20209;-83
2023/02/24 01:36:09;;;;;;;3.73;1.03;;;6.10;99.90;;;;;;5061062;28;20255;-83
2023/02/24 01:38:37;;;;;;;4.13;1.30;;;6.00;99.90;;;;;;5048101;28;20213;-85
2023/02/24 01:41:07;;;;;;;8.03;1.27;;;6.00;99.90;;;;;;5047717;28;20213;-85
2023/02/24 01:43:51;;;;;;;4.20;1.30;;;6.00;99.90;;;;;;5044939;28;20202;-84
2023/02/24 01:46:22;;;;;;;4.57;1.30;;;6.00;99.90;;;;;;5048253;28;20604;-86
2023/02/24 01:48:49;;;;;;;5.27;1.73;;;5.90;99.90;;;;;;5047904;28;20208;-80
2023/02/24 01:51:17;;;;;;;9.50;1.53;;;6.00;99.90;;;;;;5043610;28;20190;-80
2023/02/24 01:53:44;;;;;;;8.00;1.77;;;6.00;99.90;;;;;;5043753;28;20242;-82
2023/02/24 01:56:14;;;;;;;2.90;1.03;;;6.00;99.90;;;;;;5043816;28;20941;-82
2023/02/24 01:58:41;;;;;;;6.10;1.03;;;6.10;99.90;;;;;;5043886;28;20499;-80
2023/02/24 02:01:13;;;;;;;4.33;0.97;;;6.10;99.90;;;;;;5044685;28;20297;-81
2023/02/24 02:03:42;;;;;;;3.50;1.63;;;6.10;99.90;;;;;;5043691;28;20288;-82
2023/02/24 02:06:11;;;;;;;4.30;1.43;;;6.10;99.90;;;;;;5044007;28;20848;-82
2023/02/24 02:08:41;;;;;;;4.13;0.80;;;6.10;99.90;;;;;;5044873;28;20320;-81
2023/02/24 02:11:10;;;;;;;5.57;1.27;;;6.10;99.90;;;;;;5043602;28;20246;-80
2023/02/24 02:13:43;;;;;;;5.60;1.20;;;6.10;99.90;;;;;;5043534;28;20261;-80
2023/02/24 02:16:32;;;;;;;3.50;1.07;;;6.00;99.90;;;;;;5042941;28;20208;-80
2023/02/24 02:19:17;;;;;;;6.07;1.10;;;5.90;99.90;;;;;;5043907;28;20284;-81
2023/02/24 02:22:16;;;;;;;2.40;1.20;;;6.00;99.90;;;;;;5044335;28;20351;-83
2023/02/24 02:24:52;;;;;;;2.33;0.93;;;6.00;99.90;;;;;;5045588;28;20205;-80
2023/02/24 02:27:48;;;;;;;3.27;1.73;;;6.10;99.90;;;;;;5050129;28;20569;-82
2023/02/24 02:30:31;;;;;;;7.07;1.33;;;6.10;99.90;;;;;;5060087;28;20287;-79
2023/02/24 02:33:38;;;;;;;5.53;1.30;;;6.10;99.90;;;;;;5069065;28;20581;-86
2023/02/24 02:36:13;;;;;;;6.30;1.37;;;6.10;99.90;;;;;;5049210;28;20217;-80
2023/02/24 02:38:50;;;;;;;5.00;1.30;;;6.10;99.90;;;;;;5050691;28;20594;-84
2023/02/24 02:41:24;;;;;;;6.33;1.43;;;6.10;99.90;;;;;;5051391;28;20204;-81
2023/02/24 02:43:58;;;;;;;5.30;1.40;;;6.10;99.90;;;;;;5048975;28;20201;-83
2023/02/24 02:46:34;;;;;;;4.77;1.57;;;6.20;99.90;;;;;;5049876;28;20284;-84
2023/02/24 02:49:07;;;;;;;7.37;1.50;;;6.20;99.90;;;;;;5047495;28;20193;-82
2023/02/24 02:51:40;;;;;;;7.03;1.70;;;6.20;99.90;;;;;;5046853;28;20792;-84
2023/02/24 02:54:15;;;;;;;8.63;1.87;;;6.20;99.90;;;;;;5047981;28;20236;-82
2023/02/24 02:56:46;;;;;;;6.03;1.43;;;6.20;99.90;;;;;;5048276;28;20201;-83
2023/02/24 02:59:21;;;;;;;6.23;1.37;;;6.20;99.90;;;;;;5048039;28;20198;-86
2023/02/24 03:01:49;;;;;;;14.00;3.43;;;6.30;99.90;;;;;;5047395;28;20239;-80
2023/02/24 03:04:21;;;;;;;5.80;1.83;;;6.30;99.90;;;;;;5048383;28;20389;-90
2023/02/24 03:06:53;;;;;;;10.60;1.53;;;6.40;99.90;;;;;;5047757;28;20202;-84
2023/02/24 03:09:24;;;;;;;4.37;1.77;;;6.40;99.90;;;;;;5047578;28;20300;-83
2023/02/24 03:11:58;;;;;;;5.50;1.23;;;6.40;99.90;;;;;;5047379;28;20182;-80
2023/02/24 03:14:28;;;;;;;5.83;1.23;;;6.40;99.90;;;;;;5045817;28;20205;-80
2023/02/24 03:17:03;;;;;;;6.63;1.67;;;6.40;99.90;;;;;;5046227;28;20204;-81
2023/02/24 03:19:36;;;;;;;8.53;1.60;;;6.40;99.90;;;;;;5047732;28;20201;-82
2023/02/24 03:22:08;;;;;;;8.03;1.90;;;6.40;99.90;;;;;;5047468;28;20202;-81
2023/02/24 03:24:37;;;;;;;9.17;2.03;;;6.40;99.90;;;;;;5048374;28;20225;-81
2023/02/24 03:27:10;;;;;;;3.50;1.60;;;6.40;99.90;;;;;;5046884;28;20297;-82
2023/02/24 03:29:44;;;;;;;9.40;1.47;;;6.40;99.90;;;;;;5047292;28;20205;-82
2023/02/24 03:32:18;;;;;;;6.03;1.53;;;6.30;99.90;;;;;;5047804;28;20320;-83
2023/02/24 03:34:52;;;;;;;4.87;1.67;;;6.30;99.90;;;;;;5046225;28;20246;-82
2023/02/24 03:37:25;;;;;;;6.07;1.50;;;6.30;99.90;;;;;;5045871;28;20206;-82
2023/02/24 03:39:53;;;;;;;8.20;2.10;;;6.30;99.90;;;;;;5046281;28;20225;-86
2023/02/24 03:42:21;;;;;;;6.77;1.90;;;6.30;99.90;;;;;;5045494;28;20206;-83
2023/02/24 03:44:49;;;;;;;7.57;2.27;;;6.40;99.90;;;;;;5053464;28;20200;-87
2023/02/24 03:47:19;;;;;;;6.23;2.47;;;6.30;99.90;;;;;;5070929;28;20205;-90
2023/02/24 03:49:46;;;;;;;5.57;1.33;;;6.30;99.90;;;;;;5071869;28;20216;-91
2023/02/24 03:52:22;;;;;;;12.90;2.57;;;6.30;99.90;;;;;;5063992;28;20205;-85
2023/02/24 03:55:08;;;;;;;9.33;2.10;;;6.30;99.90;;;;;;5050018;28;20248;-82
2023/02/24 03:57:54;;;;;;;12.30;2.07;;;6.40;99.90;;;;;;5050414;28;20213;-84
2023/02/24 04:00:33;;;;;;;7.10;2.50;;;6.40;99.90;;;;;;5053184;28;20224;-89
2023/02/24 04:03:06;;;;;;;8.57;2.20;;;6.40;99.90;;;;;;5052075;28;20224;-89
2023/02/24 04:05:46;;;;;;;11.40;2.53;;;6.40;99.90;;;;;;5052569;28;20200;-88
2023/02/24 04:08:19;;;;;;;9.13;3.30;;;6.30;99.90;;;;;;5053526;28;20226;-90
2023/02/24 04:10:53;;;;;;;7.50;2.93;;;6.30;99.90;;;;;;5072220;28;20221;-90
2023/02/24 04:13:33;;;;;;;9.60;3.33;;;6.30;99.90;;;;;;5062735;28;20206;-89
2023/02/24 04:16:04;;;;;;;13.87;3.67;;;6.40;99.90;;;;;;5051621;28;20205;-90
2023/02/24 04:18:32;;;;;;;12.83;4.00;;;6.40;99.90;;;;;;5051761;28;20279;-87
2023/02/24 04:21:02;;;;;;;7.57;3.60;;;6.40;99.90;;;;;;5064410;28;20229;-90
2023/02/24 04:23:33;;;;;;;9.90;3.30;;;6.40;99.90;;;;;;5072413;28;20304;-84
2023/02/24 04:26:01;;;;;;;10.70;3.10;;;6.40;99.90;;;;;;5071978;28;20182;-88
2023/02/24 04:28:30;;;;;;;9.60;3.40;;;6.50;99.90;;;;;;5071840;28;20237;-87
2023/02/24 04:31:04;;;;;;;10.53;3.20;;;6.50;99.90;;;;;;5051940;28;20257;-87
2023/02/24 04:33:32;;;;;;;10.73;2.97;;;6.50;99.90;;;;;;5052749;28;20267;-92
2023/02/24 04:35:59;;;;;;;15.93;4.13;;;6.50;99.90;;;;;;5052411;28;20197;-88
2023/02/24 04:38:26;;;;;;;14.97;3.70;;;6.50;99.90;;;;;;5053343;28;20210;-86
2023/02/24 04:40:56;;;;;;;15.10;3.83;;;6.50;99.90;;;;;;5071972;28;20206;-89
2023/02/24 04:43:23;;;;;;;9.30;3.00;;;6.50;99.90;;;;;;5071669;28;20267;-86
2023/02/24 04:45:51;;;;;;;9.40;3.10;;;6.50;99.90;;;;;;5071103;28;20311;-88
2023/02/24 04:48:19;;;;;;;13.47;3.30;;;6.50;99.90;;;;;;5067740;28;20210;-89
2023/02/24 04:50:47;;;;;;;9.63;2.63;;;6.50;99.90;;;;;;5051915;28;20261;-89
2023/02/24 04:53:16;;;;;;;11.93;3.27;;;6.50;99.90;;;;;;5050719;28;20209;-88
2023/02/24 04:55:47;;;;;;;11.77;2.90;;;6.50;99.90;;;;;;5051736;28;20300;-86
2023/02/24 04:58:19;;;;;;;15.33;3.87;;;6.50;99.90;;;;;;5062077;28;20209;-89
2023/02/24 05:00:47;;;;;;;11.10;2.90;;;6.50;99.90;;;;;;5071790;28;20209;-88
2023/02/24 05:03:16;;;;;;;14.10;3.93;;;6.50;99.90;;;;;;5071220;28;20298;-90
2023/02/24 05:05:50;;;;;;;10.83;2.77;;;6.50;99.90;;;;;;5071523;28;20221;-87
2023/02/24 05:08:18;;;;;;;8.23;3.27;;;6.50;99.90;;;;;;5058763;28;20695;-89
2023/02/24 05:10:46;;;;;;;10.20;2.90;;;6.50;99.90;;;;;;5051697;28;20257;-88
2023/02/24 05:13:18;;;;;;;8.67;3.30;;;6.50;99.90;;;;;;5051124;28;20198;-84
2023/02/24 05:15:46;;;;;;;15.80;3.30;;;6.50;99.90;;;;;;5051222;28;20281;-88
2023/02/24 05:18:16;;;;;;;14.97;4.03;;;6.60;99.90;;;;;;5049959;28;21003;-91
2023/02/24 05:23:33;;;;;;;10.93;2.67;;;6.50;99.90;;;;;;5069600;28;20200;-85
2023/02/24 05:26:01;;;;;;;13.10;2.40;;;6.60;99.90;;;;;;5069371;28;20209;-81
2023/02/24 05:28:30;;;;;;;12.70;2.73;;;6.60;99.90;;;;;;5068498;28;20291;-87
2023/02/24 05:31:07;;;;;;;12.90;2.73;;;6.60;99.90;;;;;;5068044;28;20217;-85
2023/02/24 05:33:34;;;;;;;12.87;2.80;;;6.60;99.90;;;;;;5062265;28;20288;-89
2023/02/24 05:36:03;;;;;;;12.87;2.77;;;6.60;99.90;;;;;;5048904;28;20208;-85
2023/02/24 05:38:31;;;;;;;13.57;2.93;;;6.60;99.90;;;;;;5049769;28;20198;-87
2023/02/24 05:41:05;;;;;;;14.70;3.07;;;6.60;99.90;;;;;;5048905;28;20205;-85
2023/02/24 05:43:34;;;;;;;11.37;2.87;;;6.60;99.90;;;;;;5049540;28;20197;-86
2023/02/24 05:46:03;;;;;;;11.67;2.70;;;6.60;99.90;;;;;;5048386;28;20280;-81
2023/02/24 05:48:33;;;;;;;8.00;2.90;;;6.60;99.90;;;;;;5047517;28;20340;-88
2023/02/24 05:51:01;;;;;;;10.63;2.83;;;6.60;99.90;;;;;;5048290;28;20279;-88
2023/02/24 05:53:29;;;;;;;15.50;3.17;;;6.50;99.90;;;;;;5050223;28;20246;-90
2023/02/24 05:55:55;;;;;;;9.07;2.83;;;6.60;99.90;;;;;;5048439;28;20212;-83
2023/02/24 05:58:27;;;;;;;12.27;2.70;;;6.60;99.90;;;;;;5047712;28;20202;-84
2023/02/24 06:00:57;;;;;;;12.70;2.93;;;6.60;99.90;;;;;;5048473;28;20210;-85
2023/02/24 06:03:29;;;;;;;10.90;3.20;;;6.50;99.90;;;;;;5048551;28;20216;-86
2023/02/24 06:06:04;;;;;;;9.87;3.20;;;6.60;99.90;;;;;;5048082;28;20292;-90
2023/02/24 06:08:40;;;;;;;13.67;2.90;;;6.50;99.90;;;;;;5048090;28;20686;-82
2023/02/24 06:11:10;;;;;;;12.30;3.37;;;6.50;99.90;;;;;;5049215;28;20224;-89
2023/02/24 06:13:37;;;;;;;13.90;3.53;;;6.60;99.90;;;;;;5049401;28;20213;-89
2023/02/24 06:16:06;;;;;;;11.57;2.83;;;6.60;99.90;;;;;;5048310;28;20296;-83
2023/02/24 06:18:34;;;;;;;11.43;2.80;;;6.70;99.90;;;;;;5047997;28;20206;-88
2023/02/24 06:21:01;;;;;;;11.37;3.77;;;6.60;99.90;;;;;;5043820;28;20668;-84
2023/02/24 06:23:28;;;;;;;12.50;3.20;;;6.60;99.90;;;;;;5044332;28;20883;-82
2023/02/24 06:25:56;;;;;;;12.10;3.73;;;6.60;99.90;;;;;;5046979;28;20206;-85
2023/02/24 06:28:24;;;;;;;20.20;4.07;;;6.70;99.90;;;;;;5049044;28;20241;-86
2023/02/24 06:30:51;;;;;;;13.07;3.47;;;6.70;99.90;;;;;;5064857;28;20240;-90
2023/02/24 06:33:21;;;;;;;15.27;4.13;;;6.70;99.90;;;;;;5068802;28;20208;-87
2023/02/24 06:35:48;;;;;;;14.67;4.13;;;6.60;99.90;;;;;;5069285;28;20660;-85
2023/02/24 06:38:15;;;;;;;10.10;3.23;;;6.70;99.90;;;;;;5058817;28;20677;-87
2023/02/24 06:40:42;;;;;;;19.17;4.13;;;6.70;99.90;;;;;;5048609;28;20208;-84
2023/02/24 06:43:09;;;;;;;12.43;4.00;;;6.70;99.90;;;;;;5055629;28;20853;-84
2023/02/24 06:45:36;;;;;;;19.67;4.60;;;6.80;99.90;;;;;;5069121;28;20205;-83
2023/02/24 06:48:03;;;;;;;16.53;3.17;;;6.80;99.90;;;;;;5051368;28;20210;-86
2023/02/24 06:50:32;;;;;;;16.73;4.07;;;6.80;99.90;;;;;;5058540;28;20202;-82
2023/02/24 06:52:59;;;;;;;11.47;3.47;;;6.80;99.90;;;;;;5044570;28;20285;-87
2023/02/24 06:55:26;;;;;;;10.50;3.00;;;6.80;99.90;;;;;;5027312;28;20256;-88
2023/02/24 06:57:56;;;;;;;18.37;4.53;;;6.80;99.90;;;;;;5026986;28;20289;-81
2023/02/24 07:00:36;;;;;;;15.00;3.60;;;6.80;99.90;;;;;;5027454;28;20209;-88
2023/02/24 07:03:13;;;;;;;13.03;3.03;;;6.80;99.90;;;;;;5027822;28;20606;-86
2023/02/24 07:05:48;;;;;;;8.20;2.23;;;6.80;99.90;;;;;;5024239;28;20534;-90
2023/02/24 07:08:17;;;;;;;18.80;3.17;;;6.70;99.90;;;;;;5024090;28;20218;-88
2023/02/24 07:10:44;;;;;;;17.33;4.00;;;6.70;99.90;;;;;;5024005;28;20603;-87
2023/02/24 07:13:12;;;;;;;14.67;3.67;;;6.70;99.90;;;;;;5042886;28;20301;-83
2023/02/24 07:15:39;;;;;;;15.10;3.50;;;6.70;99.90;;;;;;5045743;28;20356;-83
2023/02/24 07:18:13;;;;;;;18.40;4.73;;;6.60;99.90;;;;;;5051312;28;20202;-85
2023/02/24 07:20:44;;;;;;;18.17;3.87;;;6.70;99.90;;;;;;5048166;28;20746;-79
2023/02/24 07:23:12;;;;;;;12.77;3.77;;;6.70;99.90;;;;;;5030996;28;20207;-84
2023/02/24 07:25:40;;;;;;;18.80;2.93;;;6.70;99.90;;;;;;5029478;28;20206;-81
2023/02/24 07:28:07;;;;;;;18.37;3.57;;;6.70;99.90;;;;;;5026554;28;20261;-84
2023/02/24 07:30:35;;;;;;;19.40;4.10;;;6.70;99.90;;;;;;5028633;28;20297;-87
2023/02/24 07:33:03;;;;;;;15.40;4.47;;;6.60;99.90;;;;;;5027333;28;20210;-85
2023/02/24 07:35:30;;;;;;;13.57;3.40;;;6.70;99.90;;;;;;5030337;28;20202;-81
2023/02/24 07:38:00;;;;;;;16.73;3.30;;;6.70;99.90;;;;;;5031712;28;20289;-91
2023/02/24 07:40:28;;;;;;;15.63;3.60;;;6.70;99.90;;;;;;5031247;28;20214;-89
2023/02/24 07:42:56;;;;;;;14.13;3.60;;;6.70;99.90;;;;;;5028303;28;20226;-82
2023/02/24 07:45:23;;;;;;;15.03;5.13;;;6.80;99.90;;;;;;5027654;28;20207;-83
2023/02/24 07:47:50;;;;;;;14.60;4.27;;;6.80;99.90;;;;;;5030370;28;20272;-85
2023/02/24 07:50:18;;;;;;;15.70;4.13;;;6.70;99.90;;;;;;5030516;28;20298;-84
2023/02/24 07:52:46;;;;;;;12.93;2.90;;;6.80;99.90;;;;;;5027581;28;20223;-80
2023/02/24 07:55:16;;;;;;;17.57;3.87;;;6.80;99.90;;;;;;5045879;28;20622;-81
2023/02/24 07:57:47;;;;;;;14.80;3.93;;;6.80;99.90;;;;;;5048312;28;20196;-81
2023/02/24 08:00:17;;;;;;;22.30;4.03;;;6.80;99.90;;;;;;5049443;28;20218;-81
2023/02/24 08:02:45;;;;;;;15.50;3.70;;;6.90;99.90;;;;;;5051478;28;20735;-87
2023/02/24 08:05:12;;;;;;;14.20;3.77;;;6.90;99.90;;;;;;5052145;28;20251;-83
2023/02/24 08:07:39;;;;;;;11.83;3.37;;;6.90;99.90;;;;;;5014784;28;20206;-83
2023/02/24 08:10:22;;;;;;;13.20;3.73;;;6.90;99.90;;;;;;5060270;28;20494;-84
2023/02/24 08:12:54;;;;;;;18.30;3.83;;;6.80;99.90;;;;;;5065216;28;20300;-86
2023/02/24 08:15:23;;;;;;;22.77;4.47;;;6.80;99.90;;;;;;5063041;28;20359;-92
2023/02/24 08:17:52;;;;;;;16.47;4.13;;;6.80;99.90;;;;;;5058724;28;20630;-85
2023/02/24 08:20:24;;;;;;;19.13;3.90;;;6.80;99.90;;;;;;5067885;28;20209;-80
2023/02/24 08:22:52;;;;;;;21.27;4.60;;;6.80;99.90;;;;;;5066899;28;20512;-84
2023/02/24 08:25:21;;;;;;;22.50;6.13;;;6.90;99.90;;;;;;5058506;28;20288;-85
2023/02/24 08:27:55;;;;;;;19.00;4.87;;;6.90;99.90;;;;;;5047425;28;20209;-83
2023/02/24 08:30:23;;;;;;;19.93;4.97;;;6.90;99.90;;;;;;5050616;28;20190;-83
2023/02/24 08:32:56;;;;;;;23.27;6.07;;;6.90;99.90;;;;;;5045035;28;20226;-79
2023/02/24 08:35:30;;;;;;;19.13;5.60;;;6.90;99.90;;;;;;5045749;28;20228;-77
2023/02/24 08:38:02;;;;;;;20.37;5.83;;;6.90;99.90;;;;;;5045986;28;20214;-81
2023/02/24 08:40:38;;;;;;;20.20;7.53;;;6.90;99.90;;;;;;5046525;28;20198;-81
2023/02/24 08:43:19;;;;;;;20.87;7.43;;;6.90;99.90;;;;;;5045368;28;20598;-81
2023/02/24 08:45:50;;;;;;;27.43;8.20;;;7.00;99.90;;;;;;5045663;28;20827;-80
2023/02/24 08:48:25;;;;;;;23.10;8.63;;;7.00;99.90;;;;;;5046226;28;20574;-79
2023/02/24 08:50:53;;;;;;;20.37;8.63;;;7.00;99.90;;;;;;5053061;28;20262;-82
2023/02/24 08:53:20;;;;;;;24.40;8.57;;;7.00;99.90;;;;;;5064478;28;20240;-79
2023/02/24 08:55:51;;;;;;;23.83;10.30;;;7.00;99.90;;;;;;5047124;28;20226;-81
2023/02/24 08:58:25;;;;;;;33.60;10.67;;;7.00;99.90;;;;;;5046502;28;20504;-78
2023/02/24 09:00:53;;;;;;;25.13;11.37;;;7.00;99.90;;;;;;5048588;28;20208;-79
2023/02/24 09:03:28;;;;;;;23.83;10.00;;;7.00;99.90;;;;;;5046635;28;20210;-77
2023/02/24 09:06:00;;;;;;;21.90;11.30;;;7.00;99.90;;;;;;5045556;28;20186;-78
2023/02/24 09:08:31;;;;;;;24.87;11.40;;;7.10;99.90;;;;;;5045172;28;20321;-82
2023/02/24 09:11:00;;;;;;;23.40;10.97;;;7.10;99.90;;;;;;5046850;28;20301;-78
2023/02/24 09:13:31;;;;;;;24.83;11.63;;;7.10;99.90;;;;;;5064730;28;20229;-78
2023/02/24 09:16:00;;;;;;;29.07;13.03;;;7.10;99.90;;;;;;5042629;28;20216;-78
2023/02/24 09:18:37;;;;;;;26.63;12.37;;;7.10;99.90;;;;;;5071943;28;20219;-80
2023/02/24 09:23:59;;;;;;;30.77;13.70;;;7.20;99.90;;;;;;5053947;28;20205;-77
2023/02/24 09:26:31;;;;;;;31.13;13.00;;;7.20;99.90;;;;;;5076020;28;20213;-83
2023/02/24 09:28:59;;;;;;;25.63;13.53;;;7.20;99.90;;;;;;5066909;28;20629;-84
2023/02/24 09:31:39;;;;;;;27.80;14.80;;;7.30;99.90;;;;;;5065628;28;20204;-87
2023/02/24 09:34:09;;;;;;;26.30;14.80;;;7.30;99.90;;;;;;5064508;28;20228;-81
2023/02/24 09:36:43;;;;;;;28.77;13.57;;;7.30;99.90;;;;;;5063384;28;20208;-77
2023/02/24 09:39:13;;;;;;;22.47;14.07;;;7.30;99.90;;;;;;5062224;28;20208;-77
2023/02/24 09:41:55;;;;;;;23.80;13.47;;;7.40;99.90;;;;;;5055559;28;20364;-83
2023/02/24 09:44:32;;;;;;;23.20;14.60;;;7.40;99.90;;;;;;5047268;28;20205;-82
2023/02/24 09:47:07;;;;;;;28.90;14.93;;;7.40;99.90;;;;;;5061036;28;20217;-81
2023/02/24 09:49:45;;;;;;;29.00;15.27;;;7.50;99.90;;;;;;5063328;28;20217;-84
2023/02/24 09:52:16;;;;;;;25.90;11.73;;;7.50;99.90;;;;;;5049837;28;20930;-81
2023/02/24 09:55:11;;;;;;;26.50;12.43;;;7.60;99.90;;;;;;5060588;28;20588;-83
2023/02/24 09:57:53;;;;;;;27.97;11.87;;;7.70;99.90;;;;;;5056509;28;20262;-82
2023/02/24 10:00:32;;;;;;;21.73;10.03;;;7.70;99.90;;;;;;5061657;28;20287;-82
2023/02/24 10:03:18;;;;;;;21.73;10.07;;;7.80;99.90;;;;;;5063326;28;20237;-87
2023/02/24 10:05:57;;;;;;;23.50;8.77;;;7.80;99.90;;;;;;5058541;28;20564;-84
2023/02/24 10:08:31;;;;;;;23.63;8.63;;;7.80;99.90;;;;;;5051793;28;20225;-79
2023/02/24 10:11:06;;;;;;;24.80;8.97;;;7.90;99.90;;;;;;5046545;28;20252;-81
2023/02/24 10:13:37;;;;;;;19.20;7.20;;;7.90;99.90;;;;;;5047248;28;20644;-78
2023/02/24 10:16:12;;;;;;;15.57;7.40;;;7.90;99.90;;;;;;5054339;28;20301;-81
2023/02/24 10:18:45;;;;;;;15.57;6.33;;;7.90;99.90;;;;;;5048523;28;20296;-82
2023/02/24 10:21:29;;;;;;;18.63;5.23;;;8.00;99.90;;;;;;5058543;28;20212;-85
2023/02/24 10:24:06;;;;;;;21.67;5.23;;;8.00;99.90;;;;;;5067965;28;20606;-85
2023/02/24 10:26:44;;;;;;;15.33;4.67;;;8.00;99.90;;;;;;5054966;28;20287;-79
2023/02/24 10:29:28;;;;;;;16.50;4.57;;;8.00;99.90;;;;;;5064127;28;20204;-78
2023/02/24 10:32:06;;;;;;;16.83;3.90;;;8.00;99.90;;;;;;5064812;28;20228;-82
2023/02/24 10:34:33;;;;;;;23.93;3.83;;;8.00;99.90;;;;;;5067750;28;20279;-89
2023/02/24 10:37:18;;;;;;;22.97;5.27;;;8.10;99.90;;;;;;5067276;28;20297;-88
2023/02/24 10:39:48;;;;;;;23.50;4.63;;;8.20;99.90;;;;;;5061778;28;20689;-81
2023/02/24 10:42:24;;;;;;;24.97;4.93;;;8.20;99.90;;;;;;5049920;28;20201;-86
2023/02/24 10:44:52;;;;;;;24.27;4.73;;;8.30;99.90;;;;;;5051532;28;20456;-83
2023/02/24 10:47:29;;;;;;;16.83;5.30;;;8.40;99.90;;;;;;5058715;28;20209;-87
2023/02/24 10:49:59;;;;;;;19.73;5.30;;;8.40;99.90;;;;;;5065095;28;20223;-88
2023/02/24 10:52:49;;;;;;;39.13;6.50;;;8.50;99.90;;;;;;5067535;28;20235;-87
2023/02/24 10:55:27;;;;;;;37.07;6.67;;;8.60;99.90;;;;;;5050662;28;20242;-87
2023/02/24 10:58:04;;;;;;;28.50;5.67;;;8.60;99.90;;;;;;5057440;28;20194;-85
2023/02/24 11:01:11;;;;;;;22.33;5.13;;;8.60;99.90;;;;;;5058059;28;20670;-89
2023/02/24 11:03:46;;;;;;;30.57;6.87;;;8.70;99.90;;;;;;5058041;28;20222;-88
2023/02/24 11:06:41;;;;;;;32.83;6.20;;;8.80;99.90;;;;;;5051302;28;20210;-81
2023/02/24 11:09:30;;;;;;;25.07;6.07;;;8.90;99.90;;;;;;5059372;28;20555;-83
2023/02/24 11:17:38;;;;;;;36.00;6.40;;;9.30;99.90;;;;;;5065745;28;20253;-82
2023/02/24 11:20:16;;;;;;;30.33;5.53;;;9.40;99.90;;;;;;5068342;28;20441;-86
2023/02/24 11:22:50;;;;;;;26.07;5.00;;;9.40;99.90;;;;;;5064510;28;20193;-80
2023/02/24 11:25:21;;;;;;;27.90;5.33;;;9.40;99.90;;;;;;5071056;28;20619;-87
2023/02/24 11:27:49;;;;;;;21.70;4.77;;;9.40;99.90;;;;;;5069090;28;20201;-88
2023/02/24 11:30:24;;;;;;;29.17;4.93;;;9.50;99.90;;;;;;5070110;28;20213;-90
2023/02/24 11:33:05;;;;;;;21.70;5.20;;;9.60;99.90;;;;;;5069332;28;20295;-89
2023/02/24 11:35:40;;;;;;;29.80;5.50;;;9.60;99.90;;;;;;5073410;28;20283;-79
2023/02/24 11:38:17;;;;;;;25.17;4.43;;;9.60;99.90;;;;;;5071022;28;20737;-87
2023/02/24 11:43:17;;;;;;;27.50;6.17;;;9.40;99.90;;;;;;5052063;23;20620;-78
2023/02/24 11:45:47;;;;;;;27.73;6.63;;;9.40;99.90;;;;;;5050970;28;20208;-85
2023/02/24 11:48:19;;;;;;;28.67;5.53;;;9.40;99.90;;;;;;5050903;28;20233;-87
2023/02/24 11:50:52;;;;;;;23.07;6.03;;;9.40;99.90;;;;;;5050915;28;20693;-81
2023/02/24 11:53:26;;;;;;;20.70;5.33;;;9.30;99.90;;;;;;5033272;28;20260;-82
2023/02/24 11:55:59;;;;;;;29.13;5.37;;;9.30;99.90;;;;;;5028028;28;20289;-77
2023/02/24 11:58:35;;;;;;;24.53;5.83;;;9.50;99.90;;;;;;5027724;28;20293;-86
2023/02/24 12:01:06;;;;;;;37.67;6.50;;;9.60;99.90;;;;;;5030425;28;20199;-86
2023/02/24 12:03:39;;;;;;;23.17;5.77;;;9.70;99.90;;;;;;5030031;28;20282;-86
2023/02/24 12:06:16;;;;;;;29.03;5.00;;;9.80;99.90;;;;;;5030694;28;20202;-86
2023/02/24 12:08:51;;;;;;;22.77;4.83;;;10.00;99.90;;;;;;5032096;28;20226;-90
2023/02/24 12:11:25;;;;;;;29.90;5.10;;;10.00;99.90;;;;;;5032566;28;20265;-91
2023/02/24 12:13:59;;;;;;;25.37;4.60;;;10.10;99.90;;;;;;5032271;28;20317;-90
2023/02/24 12:16:32;;;;;;;15.87;4.33;;;10.10;99.90;;;;;;5031822;28;20210;-84
2023/02/24 12:19:05;;;;;;;18.13;4.00;;;10.10;99.90;;;;;;5031914;28;20242;-88
2023/02/24 12:21:38;;;;;;;24.70;6.63;;;10.20;99.90;;;;;;5047465;28;20208;-86
2023/02/24 12:24:06;;;;;;;26.43;5.40;;;10.20;99.90;;;;;;5043687;28;20198;-86
2023/02/24 12:26:41;;;;;;;21.83;4.70;;;10.00;99.90;;;;;;5051414;28;20260;-84
2023/02/24 12:29:41;;;;;;;21.00;5.23;;;10.00;99.90;;;;;;5048283;28;20212;-87
2023/02/24 12:32:16;;;;;;;26.77;4.80;;;9.90;99.90;;;;;;5025901;28;20213;-86
2023/02/24 12:34:55;;;;;;;25.63;5.70;;;9.90;99.90;;;;;;5030761;28;20505;-87
2023/02/24 12:37:41;;;;;;;14.73;4.10;;;9.90;99.90;;;;;;5032226;28;20198;-91
2023/02/24 12:40:21;;;;;;;21.93;4.37;;;9.90;99.90;;;;;;5042902;28;20248;-87
2023/02/24 12:42:57;;;;;;;16.57;4.00;;;9.90;99.90;;;;;;5049757;28;21106;-93
2023/02/24 12:45:34;;;;;;;23.60;5.37;;;9.90;99.90;;;;;;5050427;28;20197;-91
2023/02/24 12:48:09;;;;;;;22.57;4.90;;;10.00;99.90;;;;;;5050695;28;20288;-89
2023/02/24 12:50:48;;;;;;;26.90;5.43;;;10.00;99.90;;;;;;5032208;28;20217;-87
2023/02/24 12:53:22;;;;;;;24.67;4.97;;;9.90;99.90;;;;;;5046079;28;20210;-88
2023/02/24 12:55:59;;;;;;;27.77;5.20;;;9.80;99.90;;;;;;5048288;28;20213;-89
2023/02/24 12:58:28;;;;;;;20.50;4.90;;;9.80;99.90;;;;;;5050508;28;20297;-87
2023/02/24 13:01:05;;;;;;;23.40;4.00;;;9.70;99.90;;;;;;5040880;28;20211;-90
2023/02/24 13:03:45;;;;;;;17.70;4.30;;;9.60;99.90;;;;;;5036466;28;20205;-86
2023/02/24 13:06:19;;;;;;;18.33;3.27;;;9.40;99.90;;;;;;5029773;28;20203;-81
2023/02/24 13:08:58;;;;;;;16.77;3.20;;;9.20;99.90;;;;;;5046372;28;20316;-92
2023/02/24 13:11:37;;;;;;;21.20;3.83;;;9.00;99.90;;;;;;5043243;28;20205;-88
2023/02/24 13:14:12;;;;;;;24.67;4.47;;;8.90;99.90;;;;;;5035153;28;20997;-86
2023/02/24 13:16:40;;;;;;;16.57;3.90;;;8.90;99.90;;;;;;5042298;28;20229;-89
2023/02/24 13:19:19;;;;;;;21.50;3.77;;;8.90;99.90;;;;;;5031239;28;20256;-83
2023/02/24 13:21:56;;;;;;;20.23;5.20;;;8.90;99.90;;;;;;5045726;28;20228;-85
2023/02/24 13:24:25;;;;;;;20.73;4.37;;;8.80;99.90;;;;;;5034935;28;20224;-91
2023/02/24 13:26:52;;;;;;;22.60;5.17;;;8.90;99.90;;;;;;5033254;28;20306;-84
2023/02/24 13:29:19;;;;;;;15.53;3.90;;;8.90;99.90;;;;;;5049958;28;20289;-91
2023/02/24 13:31:49;;;;;;;19.83;4.90;;;8.90;99.90;;;;;;5043991;28;20293;-89